sensor_id;sensor_type;location;lat;lon;timestamp;P1;durP1;ratioP1;P2;durP2;ratioP2
68384;SDS011;55336;43.062;25.626;2023-06-22T00:02:16;6.22;;;4.90;;
68384;SDS011;55336;43.062;25.626;2023-06-22T00:04:43;5.90;;;5.32;;
68384;SDS011;55336;43.062;25.626;2023-06-22T00:07:09;6.00;;;5.50;;
68384;SDS011;55336;43.062;25.626;2023-06-22T00:12:01;4.70;;;4.20;;
68384;SDS011;55336;43.062;25.626;2023-06-22T00:16:53;5.72;;;5.25;;
68384;SDS011;55336;43.062;25.626;2023-06-22T00:19:25;5.22;;;4.72;;
68384;SDS011;55336;43.062;25.626;2023-06-22T00:21:51;5.28;;;4.88;;
68384;SDS011;55336;43.062;25.626;2023-06-22T00:24:18;5.47;;;4.57;;
68384;SDS011;55336;43.062;25.626;2023-06-22T00:26:45;6.18;;;5.47;;
68384;SDS011;55336;43.062;25.626;2023-06-22T00:29:11;6.20;;;5.65;;
68384;SDS011;55336;43.062;25.626;2023-06-22T00:34:04;6.15;;;5.47;;
68384;SDS011;55336;43.062;25.626;2023-06-22T00:36:31;6.72;;;5.63;;
68384;SDS011;55336;43.062;25.626;2023-06-22T00:38:58;5.18;;;4.68;;
68384;SDS011;55336;43.062;25.626;2023-06-22T00:43:54;5.70;;;5.20;;
68384;SDS011;55336;43.062;25.626;2023-06-22T00:46:23;6.47;;;5.88;;
68384;SDS011;55336;43.062;25.626;2023-06-22T00:48:50;5.72;;;5.22;;
68384;SDS011;55336;43.062;25.626;2023-06-22T00:51:17;7.88;;;5.60;;
68384;SDS011;55336;43.062;25.626;2023-06-22T00:56:09;6.93;;;5.57;;
68384;SDS011;55336;43.062;25.626;2023-06-22T00:58:38;1.30;;;1.20;;
68384;SDS011;55336;43.062;25.626;2023-06-22T01:01:06;0.55;;;0.55;;
68384;SDS011;55336;43.062;25.626;2023-06-22T01:03:33;0.57;;;0.57;;
68384;SDS011;55336;43.062;25.626;2023-06-22T01:11:22;0.98;;;0.98;;
68384;SDS011;55336;43.062;25.626;2023-06-22T01:14:15;0.38;;;0.38;;
68384;SDS011;55336;43.062;25.626;2023-06-22T01:16:52;0.25;;;0.25;;
68384;SDS011;55336;43.062;25.626;2023-06-22T01:22:10;0.52;;;0.52;;
68384;SDS011;55336;43.062;25.626;2023-06-22T01:29:48;0.30;;;0.30;;
68384;SDS011;55336;43.062;25.626;2023-06-22T01:32:24;0.52;;;0.52;;
68384;SDS011;55336;43.062;25.626;2023-06-22T01:34:52;1.15;;;0.45;;
68384;SDS011;55336;43.062;25.626;2023-06-22T01:39:47;0.15;;;0.13;;
68384;SDS011;55336;43.062;25.626;2023-06-22T01:42:13;1.08;;;0.95;;
68384;SDS011;55336;43.062;25.626;2023-06-22T01:47:05;0.47;;;0.47;;
68384;SDS011;55336;43.062;25.626;2023-06-22T01:49:32;0.43;;;0.38;;
68384;SDS011;55336;43.062;25.626;2023-06-22T01:54:24;0.20;;;0.20;;
68384;SDS011;55336;43.062;25.626;2023-06-22T02:01:50;0.30;;;0.30;;
68384;SDS011;55336;43.062;25.626;2023-06-22T02:07:39;0.45;;;0.38;;
68384;SDS011;55336;43.062;25.626;2023-06-22T02:10:11;0.20;;;0.20;;
68384;SDS011;55336;43.062;25.626;2023-06-22T02:12:44;0.28;;;0.28;;
68384;SDS011;55336;43.062;25.626;2023-06-22T02:15:11;0.17;;;0.17;;
68384;SDS011;55336;43.062;25.626;2023-06-22T02:17:42;0.20;;;0.20;;
68384;SDS011;55336;43.062;25.626;2023-06-22T02:20:14;0.08;;;0.08;;
68384;SDS011;55336;43.062;25.626;2023-06-22T02:22:40;0.47;;;0.47;;
68384;SDS011;55336;43.062;25.626;2023-06-22T02:27:32;0.35;;;0.35;;
68384;SDS011;55336;43.062;25.626;2023-06-22T02:32:24;0.60;;;0.60;;
68384;SDS011;55336;43.062;25.626;2023-06-22T02:34:50;0.30;;;0.30;;
68384;SDS011;55336;43.062;25.626;2023-06-22T02:37:18;0.70;;;0.70;;
68384;SDS011;55336;43.062;25.626;2023-06-22T02:39:44;0.57;;;0.57;;
68384;SDS011;55336;43.062;25.626;2023-06-22T02:44:36;0.75;;;0.35;;
68384;SDS011;55336;43.062;25.626;2023-06-22T02:47:02;0.40;;;0.20;;
68384;SDS011;55336;43.062;25.626;2023-06-22T02:49:29;0.20;;;0.20;;
68384;SDS011;55336;43.062;25.626;2023-06-22T02:51:55;0.35;;;0.32;;
68384;SDS011;55336;43.062;25.626;2023-06-22T02:54:22;0.30;;;0.30;;
68384;SDS011;55336;43.062;25.626;2023-06-22T02:56:48;0.55;;;0.55;;
68384;SDS011;55336;43.062;25.626;2023-06-22T02:59:15;0.80;;;0.57;;
68384;SDS011;55336;43.062;25.626;2023-06-22T03:04:08;0.15;;;0.15;;
68384;SDS011;55336;43.062;25.626;2023-06-22T03:06:38;0.17;;;0.17;;
68384;SDS011;55336;43.062;25.626;2023-06-22T03:09:06;0.10;;;0.10;;
68384;SDS011;55336;43.062;25.626;2023-06-22T03:11:32;0.20;;;0.20;;
68384;SDS011;55336;43.062;25.626;2023-06-22T03:13:59;0.10;;;0.10;;
68384;SDS011;55336;43.062;25.626;2023-06-22T03:16:25;0.17;;;0.17;;
68384;SDS011;55336;43.062;25.626;2023-06-22T03:18:51;0.13;;;0.13;;
68384;SDS011;55336;43.062;25.626;2023-06-22T03:21:21;0.45;;;0.45;;
68384;SDS011;55336;43.062;25.626;2023-06-22T03:23:48;0.55;;;0.55;;
68384;SDS011;55336;43.062;25.626;2023-06-22T03:26:16;0.43;;;0.43;;
68384;SDS011;55336;43.062;25.626;2023-06-22T03:28:43;0.10;;;0.10;;
68384;SDS011;55336;43.062;25.626;2023-06-22T03:31:09;0.50;;;0.50;;
68384;SDS011;55336;43.062;25.626;2023-06-22T03:36:01;0.63;;;0.30;;
68384;SDS011;55336;43.062;25.626;2023-06-22T03:40:53;0.70;;;0.70;;
68384;SDS011;55336;43.062;25.626;2023-06-22T03:45:45;1.23;;;1.13;;
68384;SDS011;55336;43.062;25.626;2023-06-22T03:48:11;1.33;;;0.73;;
68384;SDS011;55336;43.062;25.626;2023-06-22T03:50:38;0.55;;;0.50;;
68384;SDS011;55336;43.062;25.626;2023-06-22T03:55:29;0.45;;;0.43;;
68384;SDS011;55336;43.062;25.626;2023-06-22T04:00:22;0.60;;;0.60;;
68384;SDS011;55336;43.062;25.626;2023-06-22T04:02:49;0.57;;;0.57;;
68384;SDS011;55336;43.062;25.626;2023-06-22T04:07:42;0.30;;;0.30;;
68384;SDS011;55336;43.062;25.626;2023-06-22T04:10:10;0.47;;;0.47;;
68384;SDS011;55336;43.062;25.626;2023-06-22T04:15:02;0.45;;;0.45;;
68384;SDS011;55336;43.062;25.626;2023-06-22T04:17:28;0.75;;;0.45;;
68384;SDS011;55336;43.062;25.626;2023-06-22T04:22:20;0.20;;;0.20;;
68384;SDS011;55336;43.062;25.626;2023-06-22T04:27:12;0.10;;;0.10;;
68384;SDS011;55336;43.062;25.626;2023-06-22T04:32:08;0.20;;;0.20;;
68384;SDS011;55336;43.062;25.626;2023-06-22T04:34:37;0.55;;;0.55;;
68384;SDS011;55336;43.062;25.626;2023-06-22T04:39:29;0.57;;;0.50;;
68384;SDS011;55336;43.062;25.626;2023-06-22T04:41:56;0.22;;;0.22;;
68384;SDS011;55336;43.062;25.626;2023-06-22T04:44:25;0.35;;;0.35;;
68384;SDS011;55336;43.062;25.626;2023-06-22T04:46:58;1.98;;;1.10;;
68384;SDS011;55336;43.062;25.626;2023-06-22T04:49:33;2.22;;;1.02;;
68384;SDS011;55336;43.062;25.626;2023-06-22T04:52:06;0.80;;;0.68;;
68384;SDS011;55336;43.062;25.626;2023-06-22T04:54:33;1.08;;;0.98;;
68384;SDS011;55336;43.062;25.626;2023-06-22T04:57:01;0.25;;;0.25;;
68384;SDS011;55336;43.062;25.626;2023-06-22T04:59:29;0.70;;;0.70;;
68384;SDS011;55336;43.062;25.626;2023-06-22T05:01:59;1.00;;;0.98;;
68384;SDS011;55336;43.062;25.626;2023-06-22T05:04:26;1.05;;;0.95;;
68384;SDS011;55336;43.062;25.626;2023-06-22T05:06:53;3.63;;;1.15;;
68384;SDS011;55336;43.062;25.626;2023-06-22T05:09:20;0.90;;;0.90;;
68384;SDS011;55336;43.062;25.626;2023-06-22T05:11:46;0.38;;;0.38;;
68384;SDS011;55336;43.062;25.626;2023-06-22T05:14:12;1.00;;;1.00;;
68384;SDS011;55336;43.062;25.626;2023-06-22T05:16:39;0.82;;;0.82;;
68384;SDS011;55336;43.062;25.626;2023-06-22T05:19:06;0.88;;;0.88;;
68384;SDS011;55336;43.062;25.626;2023-06-22T05:23:57;0.80;;;0.80;;
68384;SDS011;55336;43.062;25.626;2023-06-22T05:26:28;1.80;;;1.67;;
68384;SDS011;55336;43.062;25.626;2023-06-22T05:28:55;1.10;;;0.88;;
68384;SDS011;55336;43.062;25.626;2023-06-22T05:31:21;1.20;;;1.20;;
68384;SDS011;55336;43.062;25.626;2023-06-22T05:36:13;3.05;;;0.57;;
68384;SDS011;55336;43.062;25.626;2023-06-22T05:38:40;0.70;;;0.70;;
68384;SDS011;55336;43.062;25.626;2023-06-22T05:41:06;0.32;;;0.32;;
68384;SDS011;55336;43.062;25.626;2023-06-22T05:43:33;0.70;;;0.70;;
68384;SDS011;55336;43.062;25.626;2023-06-22T05:48:25;0.50;;;0.50;;
68384;SDS011;55336;43.062;25.626;2023-06-22T05:53:16;0.63;;;0.63;;
68384;SDS011;55336;43.062;25.626;2023-06-22T05:55:42;1.23;;;0.90;;
68384;SDS011;55336;43.062;25.626;2023-06-22T06:00:34;0.93;;;0.90;;
68384;SDS011;55336;43.062;25.626;2023-06-22T06:03:00;1.13;;;0.88;;
68384;SDS011;55336;43.062;25.626;2023-06-22T06:05:37;0.50;;;0.50;;
68384;SDS011;55336;43.062;25.626;2023-06-22T06:08:04;1.30;;;0.93;;
68384;SDS011;55336;43.062;25.626;2023-06-22T06:10:31;0.95;;;0.95;;
68384;SDS011;55336;43.062;25.626;2023-06-22T06:12:58;0.82;;;0.57;;
68384;SDS011;55336;43.062;25.626;2023-06-22T06:15:26;2.63;;;1.75;;
68384;SDS011;55336;43.062;25.626;2023-06-22T06:20:18;0.52;;;0.50;;
68384;SDS011;55336;43.062;25.626;2023-06-22T06:22:48;0.90;;;0.90;;
68384;SDS011;55336;43.062;25.626;2023-06-22T06:25:14;1.15;;;0.80;;
68384;SDS011;55336;43.062;25.626;2023-06-22T06:27:49;1.00;;;1.00;;
68384;SDS011;55336;43.062;25.626;2023-06-22T06:30:17;1.35;;;1.25;;
68384;SDS011;55336;43.062;25.626;2023-06-22T06:32:43;1.52;;;1.42;;
68384;SDS011;55336;43.062;25.626;2023-06-22T06:35:11;1.27;;;1.27;;
68384;SDS011;55336;43.062;25.626;2023-06-22T06:37:39;1.98;;;1.88;;
68384;SDS011;55336;43.062;25.626;2023-06-22T06:40:06;1.88;;;1.70;;
68384;SDS011;55336;43.062;25.626;2023-06-22T06:42:36;1.52;;;1.33;;
68384;SDS011;55336;43.062;25.626;2023-06-22T06:45:15;2.03;;;1.92;;
68384;SDS011;55336;43.062;25.626;2023-06-22T06:47:45;1.42;;;1.35;;
68384;SDS011;55336;43.062;25.626;2023-06-22T06:50:11;1.80;;;1.70;;
68384;SDS011;55336;43.062;25.626;2023-06-22T06:52:37;2.20;;;1.42;;
68384;SDS011;55336;43.062;25.626;2023-06-22T06:55:03;0.85;;;0.85;;
68384;SDS011;55336;43.062;25.626;2023-06-22T06:57:32;1.75;;;1.65;;
68384;SDS011;55336;43.062;25.626;2023-06-22T06:59:58;2.03;;;1.83;;
68384;SDS011;55336;43.062;25.626;2023-06-22T07:02:25;2.30;;;1.48;;
68384;SDS011;55336;43.062;25.626;2023-06-22T07:04:53;3.90;;;2.08;;
68384;SDS011;55336;43.062;25.626;2023-06-22T07:07:20;1.40;;;1.35;;
68384;SDS011;55336;43.062;25.626;2023-06-22T07:09:46;1.17;;;1.17;;
68384;SDS011;55336;43.062;25.626;2023-06-22T07:12:12;2.63;;;2.45;;
68384;SDS011;55336;43.062;25.626;2023-06-22T07:14:38;8.75;;;8.05;;
68384;SDS011;55336;43.062;25.626;2023-06-22T07:17:04;7.25;;;6.72;;
68384;SDS011;55336;43.062;25.626;2023-06-22T07:19:29;6.95;;;6.45;;
68384;SDS011;55336;43.062;25.626;2023-06-22T07:21:56;6.78;;;6.28;;
68384;SDS011;55336;43.062;25.626;2023-06-22T07:24:22;6.68;;;6.10;;
68384;SDS011;55336;43.062;25.626;2023-06-22T07:26:49;5.53;;;5.13;;
68384;SDS011;55336;43.062;25.626;2023-06-22T07:29:19;4.72;;;4.43;;
68384;SDS011;55336;43.062;25.626;2023-06-22T07:31:46;5.65;;;5.20;;
68384;SDS011;55336;43.062;25.626;2023-06-22T07:34:12;6.68;;;6.03;;
68384;SDS011;55336;43.062;25.626;2023-06-22T07:36:39;6.88;;;6.28;;
68384;SDS011;55336;43.062;25.626;2023-06-22T07:39:05;6.60;;;6.10;;
68384;SDS011;55336;43.062;25.626;2023-06-22T07:41:31;5.13;;;4.70;;
68384;SDS011;55336;43.062;25.626;2023-06-22T07:43:57;6.03;;;5.43;;
68384;SDS011;55336;43.062;25.626;2023-06-22T07:46:23;6.10;;;5.50;;
68384;SDS011;55336;43.062;25.626;2023-06-22T07:48:49;6.38;;;5.78;;
68384;SDS011;55336;43.062;25.626;2023-06-22T07:51:15;5.75;;;5.22;;
68384;SDS011;55336;43.062;25.626;2023-06-22T07:53:41;20.92;;;6.47;;
68384;SDS011;55336;43.062;25.626;2023-06-22T07:56:09;5.82;;;5.32;;
68384;SDS011;55336;43.062;25.626;2023-06-22T07:58:36;7.00;;;6.00;;
68384;SDS011;55336;43.062;25.626;2023-06-22T08:01:02;5.55;;;5.13;;
68384;SDS011;55336;43.062;25.626;2023-06-22T08:03:28;5.53;;;4.95;;
68384;SDS011;55336;43.062;25.626;2023-06-22T08:05:54;7.18;;;5.32;;
68384;SDS011;55336;43.062;25.626;2023-06-22T08:08:20;6.63;;;6.03;;
68384;SDS011;55336;43.062;25.626;2023-06-22T08:10:46;6.03;;;5.45;;
68384;SDS011;55336;43.062;25.626;2023-06-22T08:13:12;5.85;;;5.45;;
68384;SDS011;55336;43.062;25.626;2023-06-22T08:15:38;6.20;;;5.50;;
68384;SDS011;55336;43.062;25.626;2023-06-22T08:18:05;5.90;;;5.40;;
68384;SDS011;55336;43.062;25.626;2023-06-22T08:20:30;5.15;;;4.75;;
68384;SDS011;55336;43.062;25.626;2023-06-22T08:22:56;4.35;;;4.05;;
68384;SDS011;55336;43.062;25.626;2023-06-22T08:25:25;4.18;;;3.88;;
68384;SDS011;55336;43.062;25.626;2023-06-22T08:27:51;4.95;;;4.57;;
68384;SDS011;55336;43.062;25.626;2023-06-22T08:30:18;4.32;;;4.03;;
68384;SDS011;55336;43.062;25.626;2023-06-22T08:32:44;4.63;;;4.22;;
68384;SDS011;55336;43.062;25.626;2023-06-22T08:35:09;5.00;;;4.60;;
68384;SDS011;55336;43.062;25.626;2023-06-22T08:37:36;5.40;;;4.82;;
68384;SDS011;55336;43.062;25.626;2023-06-22T08:40:04;4.70;;;4.40;;
68384;SDS011;55336;43.062;25.626;2023-06-22T08:42:33;5.15;;;4.65;;
68384;SDS011;55336;43.062;25.626;2023-06-22T08:44:59;3.95;;;3.58;;
68384;SDS011;55336;43.062;25.626;2023-06-22T08:47:27;4.07;;;3.28;;
68384;SDS011;55336;43.062;25.626;2023-06-22T08:49:53;4.03;;;3.72;;
68384;SDS011;55336;43.062;25.626;2023-06-22T08:52:19;4.22;;;3.88;;
68384;SDS011;55336;43.062;25.626;2023-06-22T08:54:45;3.58;;;3.28;;
68384;SDS011;55336;43.062;25.626;2023-06-22T08:57:11;4.82;;;4.28;;
68384;SDS011;55336;43.062;25.626;2023-06-22T08:59:37;3.85;;;3.55;;
68384;SDS011;55336;43.062;25.626;2023-06-22T09:02:03;4.53;;;3.78;;
68384;SDS011;55336;43.062;25.626;2023-06-22T09:04:29;3.85;;;3.55;;
68384;SDS011;55336;43.062;25.626;2023-06-22T09:06:55;3.60;;;3.30;;
68384;SDS011;55336;43.062;25.626;2023-06-22T09:09:21;4.00;;;3.70;;
68384;SDS011;55336;43.062;25.626;2023-06-22T09:11:47;4.38;;;4.07;;
68384;SDS011;55336;43.062;25.626;2023-06-22T09:14:13;5.22;;;4.72;;
68384;SDS011;55336;43.062;25.626;2023-06-22T09:16:39;6.05;;;4.47;;
68384;SDS011;55336;43.062;25.626;2023-06-22T09:19:04;4.10;;;3.72;;
68384;SDS011;55336;43.062;25.626;2023-06-22T09:21:30;4.05;;;3.75;;
68384;SDS011;55336;43.062;25.626;2023-06-22T09:23:56;3.88;;;3.58;;
68384;SDS011;55336;43.062;25.626;2023-06-22T09:26:22;3.88;;;3.58;;
68384;SDS011;55336;43.062;25.626;2023-06-22T09:28:49;3.95;;;3.65;;
68384;SDS011;55336;43.062;25.626;2023-06-22T09:31:15;3.92;;;3.30;;
68384;SDS011;55336;43.062;25.626;2023-06-22T09:33:42;4.05;;;3.75;;
68384;SDS011;55336;43.062;25.626;2023-06-22T09:36:08;4.43;;;3.40;;
68384;SDS011;55336;43.062;25.626;2023-06-22T09:38:37;3.80;;;3.50;;
68384;SDS011;55336;43.062;25.626;2023-06-22T09:41:03;3.20;;;2.90;;
68384;SDS011;55336;43.062;25.626;2023-06-22T09:43:29;3.80;;;3.50;;
68384;SDS011;55336;43.062;25.626;2023-06-22T09:45:56;6.00;;;3.47;;
68384;SDS011;55336;43.062;25.626;2023-06-22T09:48:22;4.32;;;3.95;;
68384;SDS011;55336;43.062;25.626;2023-06-22T09:50:48;3.13;;;2.92;;
68384;SDS011;55336;43.062;25.626;2023-06-22T09:53:14;4.00;;;3.67;;
68384;SDS011;55336;43.062;25.626;2023-06-22T09:55:40;4.20;;;3.80;;
68384;SDS011;55336;43.062;25.626;2023-06-22T09:58:06;5.57;;;4.05;;
68384;SDS011;55336;43.062;25.626;2023-06-22T10:00:33;4.22;;;3.92;;
68384;SDS011;55336;43.062;25.626;2023-06-22T10:02:59;5.15;;;4.65;;
68384;SDS011;55336;43.062;25.626;2023-06-22T10:05:25;4.10;;;3.70;;
68384;SDS011;55336;43.062;25.626;2023-06-22T10:07:51;4.55;;;4.15;;
68384;SDS011;55336;43.062;25.626;2023-06-22T10:10:17;4.47;;;4.18;;
68384;SDS011;55336;43.062;25.626;2023-06-22T10:12:47;3.53;;;3.33;;
68384;SDS011;55336;43.062;25.626;2023-06-22T10:15:20;3.95;;;3.55;;
68384;SDS011;55336;43.062;25.626;2023-06-22T10:17:46;3.53;;;3.33;;
68384;SDS011;55336;43.062;25.626;2023-06-22T10:20:12;5.03;;;4.60;;
68384;SDS011;55336;43.062;25.626;2023-06-22T10:22:39;3.97;;;3.67;;
68384;SDS011;55336;43.062;25.626;2023-06-22T10:25:06;4.15;;;3.83;;
68384;SDS011;55336;43.062;25.626;2023-06-22T10:27:32;3.63;;;3.35;;
68384;SDS011;55336;43.062;25.626;2023-06-22T10:29:58;3.75;;;3.45;;
68384;SDS011;55336;43.062;25.626;2023-06-22T10:32:24;3.38;;;3.17;;
68384;SDS011;55336;43.062;25.626;2023-06-22T10:34:50;4.05;;;3.65;;
68384;SDS011;55336;43.062;25.626;2023-06-22T10:37:16;4.47;;;4.03;;
68384;SDS011;55336;43.062;25.626;2023-06-22T10:39:42;3.53;;;3.22;;
68384;SDS011;55336;43.062;25.626;2023-06-22T10:42:07;3.63;;;3.33;;
68384;SDS011;55336;43.062;25.626;2023-06-22T10:44:33;3.85;;;3.55;;
68384;SDS011;55336;43.062;25.626;2023-06-22T10:46:59;4.47;;;4.07;;
68384;SDS011;55336;43.062;25.626;2023-06-22T10:49:25;3.58;;;3.28;;
68384;SDS011;55336;43.062;25.626;2023-06-22T10:51:50;3.28;;;3.00;;
68384;SDS011;55336;43.062;25.626;2023-06-22T10:54:16;3.92;;;3.63;;
68384;SDS011;55336;43.062;25.626;2023-06-22T10:56:44;4.07;;;3.78;;
68384;SDS011;55336;43.062;25.626;2023-06-22T10:59:10;3.75;;;3.45;;
68384;SDS011;55336;43.062;25.626;2023-06-22T11:01:35;7.15;;;4.43;;
68384;SDS011;55336;43.062;25.626;2023-06-22T11:04:02;5.28;;;4.40;;
68384;SDS011;55336;43.062;25.626;2023-06-22T11:06:29;3.38;;;3.08;;
68384;SDS011;55336;43.062;25.626;2023-06-22T11:08:55;5.20;;;4.70;;
68384;SDS011;55336;43.062;25.626;2023-06-22T11:11:21;6.10;;;3.40;;
68384;SDS011;55336;43.062;25.626;2023-06-22T11:13:46;3.78;;;3.47;;
68384;SDS011;55336;43.062;25.626;2023-06-22T11:16:12;3.35;;;3.05;;
68384;SDS011;55336;43.062;25.626;2023-06-22T11:18:38;4.55;;;3.88;;
68384;SDS011;55336;43.062;25.626;2023-06-22T11:21:04;2.95;;;2.75;;
68384;SDS011;55336;43.062;25.626;2023-06-22T11:23:29;2.92;;;2.72;;
68384;SDS011;55336;43.062;25.626;2023-06-22T11:25:55;3.83;;;3.20;;
68384;SDS011;55336;43.062;25.626;2023-06-22T11:28:21;3.45;;;3.15;;
68384;SDS011;55336;43.062;25.626;2023-06-22T11:30:47;3.70;;;3.40;;
68384;SDS011;55336;43.062;25.626;2023-06-22T11:33:13;4.15;;;3.72;;
68384;SDS011;55336;43.062;25.626;2023-06-22T11:35:39;3.90;;;3.60;;
68384;SDS011;55336;43.062;25.626;2023-06-22T11:38:05;4.70;;;3.53;;
68384;SDS011;55336;43.062;25.626;2023-06-22T11:40:31;3.35;;;3.05;;
68384;SDS011;55336;43.062;25.626;2023-06-22T11:42:56;4.53;;;3.45;;
68384;SDS011;55336;43.062;25.626;2023-06-22T11:45:22;3.60;;;3.25;;
68384;SDS011;55336;43.062;25.626;2023-06-22T11:47:48;3.42;;;3.20;;
68384;SDS011;55336;43.062;25.626;2023-06-22T11:50:14;4.18;;;2.95;;
68384;SDS011;55336;43.062;25.626;2023-06-22T11:52:39;2.20;;;2.10;;
68384;SDS011;55336;43.062;25.626;2023-06-22T11:55:05;3.80;;;3.50;;
68384;SDS011;55336;43.062;25.626;2023-06-22T11:57:35;3.90;;;3.60;;
68384;SDS011;55336;43.062;25.626;2023-06-22T12:00:03;2.53;;;2.42;;
68384;SDS011;55336;43.062;25.626;2023-06-22T12:02:49;2.92;;;2.72;;
68384;SDS011;55336;43.062;25.626;2023-06-22T12:05:18;2.92;;;2.72;;
68384;SDS011;55336;43.062;25.626;2023-06-22T12:07:46;3.83;;;3.38;;
68384;SDS011;55336;43.062;25.626;2023-06-22T12:10:11;2.88;;;2.67;;
68384;SDS011;55336;43.062;25.626;2023-06-22T12:12:37;2.75;;;2.35;;
68384;SDS011;55336;43.062;25.626;2023-06-22T12:15:03;2.28;;;2.17;;
68384;SDS011;55336;43.062;25.626;2023-06-22T12:17:30;2.58;;;2.15;;
68384;SDS011;55336;43.062;25.626;2023-06-22T12:19:56;2.75;;;2.55;;
68384;SDS011;55336;43.062;25.626;2023-06-22T12:22:23;2.28;;;2.08;;
68384;SDS011;55336;43.062;25.626;2023-06-22T12:24:49;2.63;;;2.42;;
68384;SDS011;55336;43.062;25.626;2023-06-22T12:27:15;3.55;;;2.65;;
68384;SDS011;55336;43.062;25.626;2023-06-22T12:29:43;2.70;;;2.47;;
68384;SDS011;55336;43.062;25.626;2023-06-22T12:32:12;2.72;;;2.53;;
68384;SDS011;55336;43.062;25.626;2023-06-22T12:34:39;2.75;;;2.55;;
68384;SDS011;55336;43.062;25.626;2023-06-22T12:37:07;3.42;;;3.13;;
68384;SDS011;55336;43.062;25.626;2023-06-22T12:39:32;2.88;;;2.67;;
68384;SDS011;55336;43.062;25.626;2023-06-22T12:41:58;2.55;;;2.35;;
68384;SDS011;55336;43.062;25.626;2023-06-22T12:44:24;2.25;;;2.15;;
68384;SDS011;55336;43.062;25.626;2023-06-22T12:46:50;3.80;;;3.42;;
68384;SDS011;55336;43.062;25.626;2023-06-22T12:49:15;2.67;;;2.40;;
68384;SDS011;55336;43.062;25.626;2023-06-22T12:51:42;3.35;;;2.60;;
68384;SDS011;55336;43.062;25.626;2023-06-22T12:54:08;2.35;;;2.15;;
68384;SDS011;55336;43.062;25.626;2023-06-22T12:56:35;2.95;;;2.70;;
68384;SDS011;55336;43.062;25.626;2023-06-22T12:59:01;2.80;;;2.60;;
68384;SDS011;55336;43.062;25.626;2023-06-22T13:01:27;2.88;;;2.67;;
68384;SDS011;55336;43.062;25.626;2023-06-22T13:03:53;2.22;;;2.03;;
68384;SDS011;55336;43.062;25.626;2023-06-22T13:06:19;2.65;;;2.45;;
68384;SDS011;55336;43.062;25.626;2023-06-22T13:08:45;2.60;;;2.20;;
68384;SDS011;55336;43.062;25.626;2023-06-22T13:11:10;2.60;;;2.40;;
68384;SDS011;55336;43.062;25.626;2023-06-22T13:13:36;2.55;;;2.35;;
68384;SDS011;55336;43.062;25.626;2023-06-22T13:16:03;2.03;;;1.92;;
68384;SDS011;55336;43.062;25.626;2023-06-22T13:18:29;2.20;;;2.08;;
68384;SDS011;55336;43.062;25.626;2023-06-22T13:20:55;2.80;;;2.58;;
68384;SDS011;55336;43.062;25.626;2023-06-22T13:23:21;2.17;;;2.05;;
68384;SDS011;55336;43.062;25.626;2023-06-22T13:25:47;1.92;;;1.80;;
68384;SDS011;55336;43.062;25.626;2023-06-22T13:28:13;2.70;;;2.50;;
68384;SDS011;55336;43.062;25.626;2023-06-22T13:30:41;2.75;;;2.55;;
68384;SDS011;55336;43.062;25.626;2023-06-22T13:33:07;2.33;;;2.20;;
68384;SDS011;55336;43.062;25.626;2023-06-22T13:35:34;1.98;;;1.88;;
68384;SDS011;55336;43.062;25.626;2023-06-22T13:38:03;2.70;;;2.20;;
68384;SDS011;55336;43.062;25.626;2023-06-22T13:40:29;1.90;;;1.80;;
68384;SDS011;55336;43.062;25.626;2023-06-22T13:42:55;1.90;;;1.80;;
68384;SDS011;55336;43.062;25.626;2023-06-22T13:48:10;2.53;;;2.17;;
68384;SDS011;55336;43.062;25.626;2023-06-22T13:50:45;2.20;;;2.10;;
68384;SDS011;55336;43.062;25.626;2023-06-22T13:53:14;1.85;;;1.75;;
68384;SDS011;55336;43.062;25.626;2023-06-22T13:55:40;1.73;;;1.63;;
68384;SDS011;55336;43.062;25.626;2023-06-22T13:58:12;2.05;;;1.95;;
68384;SDS011;55336;43.062;25.626;2023-06-22T14:00:46;1.88;;;1.77;;
68384;SDS011;55336;43.062;25.626;2023-06-22T14:03:26;3.17;;;2.58;;
68384;SDS011;55336;43.062;25.626;2023-06-22T14:06:01;1.83;;;1.73;;
68384;SDS011;55336;43.062;25.626;2023-06-22T14:08:27;1.83;;;1.73;;
68384;SDS011;55336;43.062;25.626;2023-06-22T14:10:56;1.77;;;1.67;;
68384;SDS011;55336;43.062;25.626;2023-06-22T14:13:30;2.45;;;2.28;;
68384;SDS011;55336;43.062;25.626;2023-06-22T14:16:04;2.28;;;2.08;;
68384;SDS011;55336;43.062;25.626;2023-06-22T14:18:49;2.35;;;1.95;;
68384;SDS011;55336;43.062;25.626;2023-06-22T14:21:15;2.80;;;2.60;;
68384;SDS011;55336;43.062;25.626;2023-06-22T14:23:41;2.03;;;1.90;;
68384;SDS011;55336;43.062;25.626;2023-06-22T14:26:12;1.77;;;1.67;;
68384;SDS011;55336;43.062;25.626;2023-06-22T14:28:39;2.70;;;2.50;;
68384;SDS011;55336;43.062;25.626;2023-06-22T14:31:17;2.08;;;1.98;;
68384;SDS011;55336;43.062;25.626;2023-06-22T14:33:45;2.28;;;2.08;;
68384;SDS011;55336;43.062;25.626;2023-06-22T14:36:13;2.67;;;2.45;;
68384;SDS011;55336;43.062;25.626;2023-06-22T14:38:39;2.85;;;2.65;;
68384;SDS011;55336;43.062;25.626;2023-06-22T14:41:06;2.40;;;2.20;;
68384;SDS011;55336;43.062;25.626;2023-06-22T14:43:31;1.92;;;1.83;;
68384;SDS011;55336;43.062;25.626;2023-06-22T14:46:25;2.67;;;2.47;;
68384;SDS011;55336;43.062;25.626;2023-06-22T14:48:52;2.40;;;2.20;;
68384;SDS011;55336;43.062;25.626;2023-06-22T14:51:17;3.75;;;2.58;;
68384;SDS011;55336;43.062;25.626;2023-06-22T14:53:44;2.13;;;2.03;;
68384;SDS011;55336;43.062;25.626;2023-06-22T14:56:11;2.33;;;2.22;;
68384;SDS011;55336;43.062;25.626;2023-06-22T14:58:45;2.97;;;2.45;;
68384;SDS011;55336;43.062;25.626;2023-06-22T15:01:25;2.60;;;2.40;;
68384;SDS011;55336;43.062;25.626;2023-06-22T15:03:53;2.13;;;1.98;;
68384;SDS011;55336;43.062;25.626;2023-06-22T15:06:23;3.60;;;2.30;;
68384;SDS011;55336;43.062;25.626;2023-06-22T15:09:17;4.57;;;2.78;;
68384;SDS011;55336;43.062;25.626;2023-06-22T15:11:46;2.08;;;1.98;;
68384;SDS011;55336;43.062;25.626;2023-06-22T15:14:15;2.83;;;2.63;;
68384;SDS011;55336;43.062;25.626;2023-06-22T15:16:44;2.10;;;2.00;;
68384;SDS011;55336;43.062;25.626;2023-06-22T15:19:16;2.10;;;1.98;;
68384;SDS011;55336;43.062;25.626;2023-06-22T15:21:51;2.50;;;2.30;;
68384;SDS011;55336;43.062;25.626;2023-06-22T15:24:38;2.20;;;2.10;;
68384;SDS011;55336;43.062;25.626;2023-06-22T15:27:15;1.75;;;1.65;;
68384;SDS011;55336;43.062;25.626;2023-06-22T15:29:52;1.77;;;1.67;;
68384;SDS011;55336;43.062;25.626;2023-06-22T15:32:19;2.35;;;2.25;;
68384;SDS011;55336;43.062;25.626;2023-06-22T15:34:45;1.77;;;1.67;;
68384;SDS011;55336;43.062;25.626;2023-06-22T15:39:47;3.70;;;2.17;;
68384;SDS011;55336;43.062;25.626;2023-06-22T15:42:17;1.90;;;1.80;;
68384;SDS011;55336;43.062;25.626;2023-06-22T15:44:59;2.47;;;2.00;;
68384;SDS011;55336;43.062;25.626;2023-06-22T15:47:25;2.00;;;1.90;;
68384;SDS011;55336;43.062;25.626;2023-06-22T15:50:03;2.65;;;2.45;;
68384;SDS011;55336;43.062;25.626;2023-06-22T15:52:35;4.68;;;2.65;;
68384;SDS011;55336;43.062;25.626;2023-06-22T15:55:02;2.53;;;2.22;;
68384;SDS011;55336;43.062;25.626;2023-06-22T15:57:29;3.38;;;2.45;;
68384;SDS011;55336;43.062;25.626;2023-06-22T16:00:08;2.90;;;2.70;;
68384;SDS011;55336;43.062;25.626;2023-06-22T16:02:46;2.92;;;2.72;;
68384;SDS011;55336;43.062;25.626;2023-06-22T16:05:12;4.60;;;3.30;;
68384;SDS011;55336;43.062;25.626;2023-06-22T16:07:39;3.08;;;2.78;;
68384;SDS011;55336;43.062;25.626;2023-06-22T16:10:10;3.25;;;2.90;;
68384;SDS011;55336;43.062;25.626;2023-06-22T16:12:46;2.58;;;2.38;;
68384;SDS011;55336;43.062;25.626;2023-06-22T16:15:16;2.63;;;2.42;;